Time;durP1;ratioP1;P1;durP2;ratioP2;P2;SDS_P1;SDS_P2;PMS_P1;PMS_P2;Temp;Humidity;BMP_temperature;BMP_pressure;BME280_temperature;BME280_humidity;BME280_pressure;Samples;Min_cycle;Max_cycle;Signal;HPM_P1;HPM_P2
2022/11/06 00:01:44;;;;;;;7.40;4.23;;;8.40;99.90;;;;;;5053876;28;20286;-55
2022/11/06 00:04:10;;;;;;;6.50;4.20;;;8.40;99.90;;;;;;5054015;28;20203;-58
2022/11/06 00:06:46;;;;;;;11.70;4.47;;;8.40;99.90;;;;;;5053436;28;20212;-57
2022/11/06 00:09:15;;;;;;;6.80;4.17;;;8.50;99.90;;;;;;5053912;28;20212;-57
2022/11/06 00:11:43;;;;;;;8.30;3.73;;;8.50;99.90;;;;;;5053814;28;20230;-58
2022/11/06 00:14:10;;;;;;;7.00;4.10;;;8.50;99.90;;;;;;5053719;28;20641;-66
2022/11/06 00:16:38;;;;;;;5.80;3.47;;;8.50;99.90;;;;;;5053456;28;20203;-57
2022/11/06 00:19:05;;;;;;;8.10;4.63;;;8.50;99.90;;;;;;5053607;28;20309;-56
2022/11/06 00:21:32;;;;;;;6.97;3.90;;;8.50;99.90;;;;;;5053685;28;20279;-55
2022/11/06 00:24:03;;;;;;;7.67;3.90;;;8.50;99.90;;;;;;5053780;28;20214;-57
2022/11/06 00:26:31;;;;;;;7.37;3.70;;;8.50;99.90;;;;;;5053302;28;20673;-56
2022/11/06 00:28:59;;;;;;;7.17;4.17;;;8.50;99.90;;;;;;5053514;28;20249;-56
2022/11/06 00:31:28;;;;;;;7.67;3.87;;;8.50;99.90;;;;;;5053305;28;20230;-57
2022/11/06 00:33:56;;;;;;;6.53;3.97;;;8.40;99.90;;;;;;5053324;28;20269;-57
2022/11/06 00:36:24;;;;;;;6.90;3.30;;;8.40;99.90;;;;;;5052965;28;20234;-56
2022/11/06 00:38:52;;;;;;;7.30;4.00;;;8.40;99.90;;;;;;5053278;28;20226;-57
2022/11/06 00:41:21;;;;;;;9.93;4.10;;;8.30;99.90;;;;;;5053169;28;20343;-55
2022/11/06 00:43:49;;;;;;;5.47;3.77;;;8.30;99.90;;;;;;5053307;28;20219;-56
2022/11/06 00:46:16;;;;;;;6.77;3.60;;;8.20;99.90;;;;;;5052746;28;20210;-59
2022/11/06 00:48:43;;;;;;;11.60;3.83;;;8.20;99.90;;;;;;5052652;28;20205;-56
2022/11/06 00:51:11;;;;;;;5.33;3.97;;;8.20;99.90;;;;;;5052922;28;20789;-56
2022/11/06 00:53:39;;;;;;;10.03;3.87;;;8.20;99.90;;;;;;5053107;28;20638;-59
2022/11/06 00:56:06;;;;;;;7.30;3.77;;;8.10;99.90;;;;;;5052714;28;20640;-56
2022/11/06 00:58:35;;;;;;;8.80;3.53;;;8.10;99.90;;;;;;5052677;28;20255;-56
2022/11/06 01:01:09;;;;;;;4.80;3.27;;;8.10;99.90;;;;;;5052607;28;20205;-59
2022/11/06 01:03:36;;;;;;;6.90;3.73;;;8.10;99.90;;;;;;5052650;28;20214;-58
2022/11/06 01:06:05;;;;;;;7.07;3.30;;;8.10;99.90;;;;;;5052557;28;20214;-59
2022/11/06 01:08:32;;;;;;;11.63;3.60;;;8.10;99.90;;;;;;5052749;28;20202;-58
2022/11/06 01:10:59;;;;;;;6.10;3.50;;;8.10;99.90;;;;;;5052443;28;20206;-59
2022/11/06 01:13:25;;;;;;;6.40;3.40;;;8.10;99.90;;;;;;5052302;28;20205;-59
2022/11/06 01:15:53;;;;;;;3.80;3.30;;;8.10;99.90;;;;;;5052604;28;20282;-58
2022/11/06 01:18:20;;;;;;;6.27;3.53;;;8.00;99.90;;;;;;5052483;28;20225;-57
2022/11/06 01:20:47;;;;;;;11.03;3.63;;;8.10;99.90;;;;;;5052376;28;20206;-59
2022/11/06 01:23:14;;;;;;;4.73;2.57;;;8.10;99.90;;;;;;5052400;28;20237;-59
2022/11/06 01:25:40;;;;;;;9.20;3.23;;;8.10;99.90;;;;;;5052357;28;20216;-60
2022/11/06 01:28:07;;;;;;;6.47;3.03;;;8.10;99.90;;;;;;5052009;28;20622;-58
2022/11/06 01:30:36;;;;;;;7.03;3.20;;;8.10;99.90;;;;;;5052180;28;20219;-59
2022/11/06 01:33:04;;;;;;;4.80;2.67;;;8.10;99.90;;;;;;5052223;28;20225;-58
2022/11/06 01:35:30;;;;;;;6.40;3.20;;;8.10;99.90;;;;;;5052115;28;20203;-58
2022/11/06 01:37:57;;;;;;;4.43;2.50;;;8.20;99.90;;;;;;5051518;28;20211;-58
2022/11/06 01:40:24;;;;;;;6.53;3.00;;;8.10;99.90;;;;;;5051857;28;20208;-59
2022/11/06 01:42:50;;;;;;;7.47;2.93;;;8.20;99.90;;;;;;5051689;28;20233;-59
2022/11/06 01:45:35;;;;;;;5.00;3.00;;;8.20;99.90;;;;;;5052091;28;20268;-59
2022/11/06 01:48:01;;;;;;;6.03;2.93;;;8.10;99.90;;;;;;5051869;28;20755;-59
2022/11/06 01:50:30;;;;;;;9.20;3.27;;;8.10;99.90;;;;;;5051995;28;20205;-57
2022/11/06 01:52:59;;;;;;;6.07;2.80;;;8.10;99.90;;;;;;5051822;28;20226;-59
2022/11/06 01:55:29;;;;;;;6.67;2.67;;;8.10;99.90;;;;;;5052339;28;20246;-57
2022/11/06 01:57:57;;;;;;;5.23;2.63;;;8.10;99.90;;;;;;5051686;28;20661;-58
2022/11/06 02:00:25;;;;;;;4.77;2.40;;;8.10;99.90;;;;;;5051083;28;20216;-56
2022/11/06 02:02:52;;;;;;;5.30;2.97;;;8.00;99.90;;;;;;5051663;28;20712;-53
2022/11/06 02:05:18;;;;;;;5.83;2.80;;;8.00;99.90;;;;;;5051629;28;20676;-57
2022/11/06 02:07:47;;;;;;;6.73;3.33;;;8.00;99.90;;;;;;5051474;28;20730;-54
2022/11/06 02:10:14;;;;;;;6.10;2.80;;;8.00;99.90;;;;;;5052035;28;20635;-55
2022/11/06 02:12:51;;;;;;;5.93;2.70;;;8.00;99.90;;;;;;5052351;28;20230;-56
2022/11/06 02:15:29;;;;;;;5.87;2.90;;;8.00;99.90;;;;;;5051822;28;20320;-55
2022/11/06 02:18:06;;;;;;;6.83;2.87;;;8.00;99.90;;;;;;5051495;28;20202;-58
2022/11/06 02:20:41;;;;;;;3.87;2.53;;;8.00;99.90;;;;;;5051854;28;20189;-58
2022/11/06 02:23:41;;;;;;;4.67;2.90;;;8.00;99.90;;;;;;5051612;28;20283;-56
2022/11/06 02:26:21;;;;;;;6.53;2.33;;;7.90;99.90;;;;;;5051089;28;20626;-55
2022/11/06 02:28:54;;;;;;;6.07;2.80;;;7.90;99.90;;;;;;5050331;28;20210;-57
2022/11/06 02:31:26;;;;;;;7.40;2.47;;;7.90;99.90;;;;;;5051477;28;20602;-58
2022/11/06 02:33:57;;;;;;;6.07;2.50;;;7.90;99.90;;;;;;5051640;28;20209;-58
2022/11/06 02:36:29;;;;;;;4.37;2.70;;;7.90;99.90;;;;;;5051262;28;20213;-57
2022/11/06 02:38:58;;;;;;;6.20;2.50;;;7.90;99.90;;;;;;5051339;28;20279;-58
2022/11/06 02:41:30;;;;;;;6.60;2.47;;;8.00;99.90;;;;;;5051287;28;20884;-58
2022/11/06 02:43:59;;;;;;;6.73;2.60;;;8.00;99.90;;;;;;5051239;28;20882;-58
2022/11/06 02:46:30;;;;;;;3.70;2.40;;;7.90;99.90;;;;;;5051117;28;20211;-59
2022/11/06 02:49:03;;;;;;;7.30;2.70;;;8.00;99.90;;;;;;5050977;28;20259;-58
2022/11/06 02:51:31;;;;;;;9.53;2.57;;;8.00;99.90;;;;;;5051012;28;20229;-56
2022/11/06 02:54:02;;;;;;;3.43;2.17;;;8.00;99.90;;;;;;5051375;28;20533;-52
2022/11/06 02:56:34;;;;;;;4.53;2.40;;;8.00;99.90;;;;;;5051281;28;20283;-51
2022/11/06 02:59:06;;;;;;;6.00;2.50;;;8.00;99.90;;;;;;5051018;28;20230;-50
2022/11/06 03:01:36;;;;;;;7.53;2.13;;;8.00;99.90;;;;;;5051202;28;20661;-51
2022/11/06 03:04:08;;;;;;;8.97;2.13;;;8.00;99.90;;;;;;5051534;28;20209;-52
2022/11/06 03:06:40;;;;;;;5.20;2.40;;;8.00;99.90;;;;;;5051161;28;20233;-51
2022/11/06 03:09:09;;;;;;;5.67;2.33;;;8.00;99.90;;;;;;5050978;28;20630;-53
2022/11/06 03:11:38;;;;;;;5.67;2.80;;;8.00;99.90;;;;;;5051394;28;20233;-55
2022/11/06 03:14:10;;;;;;;9.40;2.53;;;8.00;99.90;;;;;;5054551;28;20241;-50
2022/11/06 03:16:48;;;;;;;4.90;2.13;;;7.90;99.90;;;;;;5054863;28;20202;-58
2022/11/06 03:19:24;;;;;;;4.50;2.27;;;8.00;99.90;;;;;;5054799;28;20348;-51
2022/11/06 03:21:57;;;;;;;5.50;2.07;;;8.00;99.90;;;;;;5054766;28;20225;-54
2022/11/06 03:24:31;;;;;;;4.93;2.27;;;8.00;99.90;;;;;;5054711;28;20292;-54
2022/11/06 03:27:00;;;;;;;12.63;2.53;;;8.00;99.90;;;;;;5054673;28;20263;-60
2022/11/06 03:29:34;;;;;;;9.23;2.77;;;8.00;99.90;;;;;;5054658;28;20217;-56
2022/11/06 03:32:08;;;;;;;4.10;2.00;;;8.00;99.90;;;;;;5054368;28;20225;-55
2022/11/06 03:34:39;;;;;;;5.83;2.20;;;8.00;99.90;;;;;;5054177;28;20234;-56
2022/11/06 03:37:13;;;;;;;7.80;2.37;;;8.00;99.90;;;;;;5054232;28;21004;-56
2022/11/06 03:39:44;;;;;;;7.40;2.50;;;8.00;99.90;;;;;;5054445;28;20296;-54
2022/11/06 03:42:14;;;;;;;6.80;2.57;;;8.00;99.90;;;;;;5054274;28;20242;-54
2022/11/06 03:44:47;;;;;;;4.27;2.10;;;8.00;99.90;;;;;;5054209;28;20218;-55
2022/11/06 03:47:20;;;;;;;4.37;2.27;;;8.00;99.90;;;;;;5053996;28;20269;-52
2022/11/06 03:49:51;;;;;;;6.47;2.40;;;8.00;99.90;;;;;;5054046;28;20763;-56
2022/11/06 03:52:24;;;;;;;5.90;1.93;;;7.90;99.90;;;;;;5054285;28;20291;-51
2022/11/06 03:54:58;;;;;;;4.80;1.90;;;7.90;99.90;;;;;;5054038;28;20673;-57
2022/11/06 03:57:31;;;;;;;4.17;2.37;;;8.00;99.90;;;;;;5053820;28;20562;-56
2022/11/06 04:00:01;;;;;;;4.10;2.03;;;8.00;99.90;;;;;;5053694;28;20231;-55
2022/11/06 04:02:31;;;;;;;3.77;2.00;;;8.00;99.90;;;;;;5054073;28;20222;-59
2022/11/06 04:05:02;;;;;;;6.13;1.90;;;8.00;99.90;;;;;;5053969;28;20206;-57
2022/11/06 04:07:35;;;;;;;4.77;1.90;;;8.00;99.90;;;;;;5053793;28;20219;-58
2022/11/06 04:15:42;;;;;;;5.57;2.20;;;8.00;99.90;;;;;;5053625;28;20308;-58
2022/11/06 04:18:13;;;;;;;9.53;2.20;;;8.00;99.90;;;;;;5053380;28;20237;-59
2022/11/06 04:23:44;;;;;;;4.60;2.33;;;8.00;99.90;;;;;;5052561;28;20268;-59
2022/11/06 04:26:35;;;;;;;3.43;1.90;;;8.00;99.90;;;;;;5053365;28;20695;-58
2022/11/06 04:29:12;;;;;;;4.20;2.10;;;8.00;99.90;;;;;;5053220;28;20598;-59
2022/11/06 04:31:47;;;;;;;4.73;1.63;;;8.00;99.90;;;;;;5053313;28;20221;-58
2022/11/06 04:34:21;;;;;;;6.37;2.00;;;8.00;99.90;;;;;;5053427;28;20209;-59
2022/11/06 04:36:54;;;;;;;3.40;1.90;;;7.90;99.90;;;;;;5053327;28;20208;-55
2022/11/06 04:39:28;;;;;;;4.17;2.07;;;8.00;99.90;;;;;;5053390;28;20277;-55
2022/11/06 04:42:00;;;;;;;4.77;2.03;;;7.90;99.90;;;;;;5053040;28;20298;-58
2022/11/06 04:44:31;;;;;;;4.60;1.63;;;7.90;99.90;;;;;;5053102;28;20259;-59
2022/11/06 04:47:01;;;;;;;5.97;2.50;;;8.00;99.90;;;;;;5052872;28;20207;-58
2022/11/06 04:49:31;;;;;;;4.03;2.13;;;7.90;99.90;;;;;;5053013;28;20202;-59
2022/11/06 04:51:59;;;;;;;3.67;1.70;;;7.90;99.90;;;;;;5052892;28;20229;-59
2022/11/06 04:54:26;;;;;;;9.80;1.70;;;8.00;99.90;;;;;;5053113;28;20210;-58
2022/11/06 04:56:58;;;;;;;2.93;1.90;;;8.00;99.90;;;;;;5053178;28;20202;-55
2022/11/06 04:59:25;;;;;;;4.57;1.93;;;8.00;99.90;;;;;;5052839;28;20229;-57
2022/11/06 05:01:52;;;;;;;4.03;1.90;;;8.00;99.90;;;;;;5052989;28;20237;-52
2022/11/06 05:04:20;;;;;;;3.17;2.10;;;8.00;99.90;;;;;;5052595;28;20264;-56
2022/11/06 05:06:46;;;;;;;3.33;1.63;;;8.00;99.90;;;;;;5052452;28;20264;-53
2022/11/06 05:09:13;;;;;;;4.03;1.90;;;8.00;99.90;;;;;;5052786;28;20212;-55
2022/11/06 05:11:40;;;;;;;3.30;1.77;;;7.90;99.90;;;;;;5052711;28;20239;-58
2022/11/06 05:14:07;;;;;;;6.37;2.07;;;7.90;99.90;;;;;;5052510;28;20232;-59
2022/11/06 05:16:33;;;;;;;4.00;2.03;;;7.90;99.90;;;;;;5052367;28;20207;-52
2022/11/06 05:19:00;;;;;;;3.90;2.03;;;7.90;99.90;;;;;;5052346;28;20214;-54
2022/11/06 05:24:12;;;;;;;5.97;2.00;;;7.90;99.90;;;;;;5052392;28;20206;-52
2022/11/06 05:26:39;;;;;;;2.63;1.90;;;7.80;99.90;;;;;;5052276;28;20213;-54
2022/11/06 05:29:06;;;;;;;2.90;1.53;;;7.80;99.90;;;;;;5051952;28;20736;-55
2022/11/06 05:31:32;;;;;;;8.17;2.60;;;7.90;99.90;;;;;;5052242;28;20689;-57
2022/11/06 05:33:59;;;;;;;4.10;1.70;;;7.80;99.90;;;;;;5052084;28;20234;-59
2022/11/06 05:36:27;;;;;;;4.50;1.90;;;7.80;99.90;;;;;;5051919;28;20210;-58
2022/11/06 05:38:54;;;;;;;3.90;1.63;;;7.80;99.90;;;;;;5052253;28;20206;-58
2022/11/06 05:41:21;;;;;;;6.33;2.03;;;7.70;99.90;;;;;;5051896;28;20225;-57
2022/11/06 05:43:47;;;;;;;5.40;2.20;;;7.70;99.90;;;;;;5052095;28;20225;-57
2022/11/06 05:46:14;;;;;;;6.07;1.97;;;7.70;99.90;;;;;;5051708;28;20283;-58
2022/11/06 05:48:41;;;;;;;3.07;1.70;;;7.60;99.90;;;;;;5052182;28;20632;-58
2022/11/06 05:51:08;;;;;;;8.73;2.30;;;7.60;99.90;;;;;;5051943;28;20610;-59
2022/11/06 05:53:37;;;;;;;4.97;1.80;;;7.60;99.90;;;;;;5051917;28;20630;-58
2022/11/06 05:56:04;;;;;;;5.40;2.50;;;7.60;99.90;;;;;;5051650;28;20251;-57
2022/11/06 05:58:31;;;;;;;7.37;1.80;;;7.60;99.90;;;;;;5051910;28;20248;-56
2022/11/06 06:00:59;;;;;;;5.53;1.93;;;7.60;99.90;;;;;;5051414;28;20221;-58
2022/11/06 06:03:26;;;;;;;6.20;1.90;;;7.60;99.90;;;;;;5051986;28;20279;-55
2022/11/06 06:05:53;;;;;;;5.63;2.50;;;7.60;99.90;;;;;;5051592;28;20205;-58
2022/11/06 06:08:20;;;;;;;7.43;2.10;;;7.60;99.90;;;;;;5051825;28;20206;-57
2022/11/06 06:10:48;;;;;;;6.60;1.87;;;7.60;99.90;;;;;;5051641;28;20198;-59
2022/11/06 06:13:16;;;;;;;4.10;1.67;;;7.60;99.90;;;;;;5051529;28;20295;-59
2022/11/06 06:15:42;;;;;;;3.90;1.80;;;7.60;99.90;;;;;;5051772;28;20611;-58
2022/11/06 06:18:10;;;;;;;7.50;2.17;;;7.60;99.90;;;;;;5051620;28;20229;-59
2022/11/06 06:20:37;;;;;;;5.30;2.43;;;7.60;99.90;;;;;;5051514;28;20225;-58
2022/11/06 06:23:04;;;;;;;5.93;1.97;;;7.60;99.90;;;;;;5051641;28;20653;-58
2022/11/06 06:25:30;;;;;;;4.80;2.10;;;7.50;99.90;;;;;;5051484;28;20206;-60
2022/11/06 06:27:59;;;;;;;6.23;1.73;;;7.60;99.90;;;;;;5051190;28;20214;-58
2022/11/06 06:30:25;;;;;;;5.83;2.00;;;7.60;99.90;;;;;;5051709;28;20206;-58
2022/11/06 06:32:52;;;;;;;7.53;1.90;;;7.60;99.90;;;;;;5051460;28;20283;-58
2022/11/06 06:35:19;;;;;;;6.27;2.20;;;7.60;99.90;;;;;;5051439;28;20209;-59
2022/11/06 06:37:52;;;;;;;3.23;1.53;;;7.60;99.90;;;;;;5051412;28;20205;-58
2022/11/06 06:40:18;;;;;;;2.80;1.70;;;7.60;99.90;;;;;;5051079;28;20713;-59
2022/11/06 06:42:45;;;;;;;3.10;1.77;;;7.60;99.90;;;;;;5051110;28;20241;-59
2022/11/06 06:45:13;;;;;;;8.53;1.90;;;7.60;99.90;;;;;;5051562;28;20288;-59
2022/11/06 06:47:40;;;;;;;6.83;2.47;;;7.70;99.90;;;;;;5053189;28;20213;-59
2022/11/06 06:50:08;;;;;;;5.53;1.70;;;7.70;99.90;;;;;;5055131;28;20239;-58
2022/11/06 06:52:34;;;;;;;8.50;2.07;;;7.70;99.90;;;;;;5055157;28;20276;-59
2022/11/06 06:55:01;;;;;;;6.17;2.23;;;7.70;99.90;;;;;;5055053;28;20259;-58
2022/11/06 06:57:28;;;;;;;4.07;1.77;;;7.70;99.90;;;;;;5055297;28;20205;-56
2022/11/06 06:59:54;;;;;;;6.03;2.40;;;7.70;99.90;;;;;;5055238;28;20233;-60
2022/11/06 07:02:22;;;;;;;3.67;2.20;;;7.70;99.90;;;;;;5055284;28;20229;-55
2022/11/06 07:04:49;;;;;;;7.23;1.80;;;7.70;99.90;;;;;;5055060;28;20238;-58
2022/11/06 07:07:15;;;;;;;6.30;1.90;;;7.80;99.90;;;;;;5054803;28;20727;-56
2022/11/06 07:09:42;;;;;;;4.43;1.80;;;7.80;99.90;;;;;;5055389;28;20605;-54
2022/11/06 07:12:09;;;;;;;5.10;2.00;;;7.80;99.90;;;;;;5054945;28;20226;-52
2022/11/06 07:14:35;;;;;;;5.17;1.50;;;7.80;99.90;;;;;;5055018;28;20267;-56
2022/11/06 07:17:02;;;;;;;2.47;1.57;;;7.80;99.90;;;;;;5054692;28;20256;-54
2022/11/06 07:19:30;;;;;;;4.70;1.97;;;7.90;99.90;;;;;;5054802;28;20217;-50
2022/11/06 07:21:57;;;;;;;7.30;1.77;;;7.90;99.90;;;;;;5054533;28;20227;-53
2022/11/06 07:24:23;;;;;;;5.60;1.80;;;8.00;99.90;;;;;;5054613;28;20636;-56
2022/11/06 07:26:50;;;;;;;4.57;1.93;;;8.00;99.90;;;;;;5054339;28;20210;-56
2022/11/06 07:29:16;;;;;;;7.17;1.77;;;8.10;99.90;;;;;;5054680;28;20210;-57
2022/11/06 07:31:43;;;;;;;9.87;1.90;;;8.10;99.90;;;;;;5054863;28;20268;-49
2022/11/06 07:34:10;;;;;;;6.17;1.90;;;8.20;99.90;;;;;;5054550;28;20229;-56
2022/11/06 07:36:38;;;;;;;5.83;2.30;;;8.20;99.90;;;;;;5054242;28;20218;-56
2022/11/06 07:39:04;;;;;;;6.53;2.10;;;8.30;99.90;;;;;;5054477;28;20564;-52
2022/11/06 07:41:31;;;;;;;6.90;2.00;;;8.30;99.90;;;;;;5054157;28;20379;-56
2022/11/06 07:43:58;;;;;;;5.70;1.80;;;8.40;99.90;;;;;;5053884;28;20256;-51
2022/11/06 07:46:24;;;;;;;4.63;2.23;;;8.50;99.90;;;;;;5054085;28;20215;-58
2022/11/06 07:48:51;;;;;;;2.93;1.50;;;8.50;99.90;;;;;;5054259;28;20202;-56
2022/11/06 07:51:18;;;;;;;3.60;1.60;;;8.60;99.90;;;;;;5053990;28;20221;-59
2022/11/06 07:53:46;;;;;;;9.37;1.97;;;8.60;99.90;;;;;;5054188;28;20243;-55
2022/11/06 07:56:13;;;;;;;5.00;1.83;;;8.70;99.90;;;;;;5053963;28;20212;-53
2022/11/06 07:58:39;;;;;;;2.53;1.80;;;8.80;99.90;;;;;;5054079;28;20212;-55
2022/11/06 08:01:11;;;;;;;2.33;1.80;;;8.80;99.90;;;;;;5053790;28;20235;-57
2022/11/06 08:03:38;;;;;;;5.33;2.03;;;8.80;99.90;;;;;;5053769;28;20274;-54
2022/11/06 08:06:05;;;;;;;5.63;2.00;;;8.90;99.90;;;;;;5053740;28;20263;-56
2022/11/06 08:08:32;;;;;;;3.97;1.53;;;8.90;99.90;;;;;;5053978;28;20206;-56
2022/11/06 08:11:02;;;;;;;4.87;1.80;;;9.00;99.90;;;;;;5053409;28;20266;-54
2022/11/06 08:13:29;;;;;;;3.93;1.60;;;9.00;99.90;;;;;;5053737;28;20208;-56
2022/11/06 08:15:56;;;;;;;9.73;1.63;;;9.10;99.90;;;;;;5053456;28;20228;-54
2022/11/06 08:18:22;;;;;;;2.43;1.80;;;9.10;99.90;;;;;;5053616;28;20207;-58
2022/11/06 08:20:52;;;;;;;2.87;1.70;;;9.10;99.90;;;;;;5053796;28;20263;-55
2022/11/06 08:23:19;;;;;;;6.57;1.57;;;9.20;99.90;;;;;;5053819;28;20230;-55
2022/11/06 08:25:46;;;;;;;6.80;1.80;;;9.30;99.90;;;;;;5053575;28;20274;-53
2022/11/06 08:28:14;;;;;;;5.27;2.10;;;9.40;99.90;;;;;;5053155;28;20213;-57
2022/11/06 08:30:40;;;;;;;3.43;1.60;;;9.40;99.90;;;;;;5053391;28;20206;-52
2022/11/06 08:33:08;;;;;;;5.53;1.90;;;9.50;99.90;;;;;;5053166;28;20229;-55
2022/11/06 08:35:35;;;;;;;4.70;1.80;;;9.50;99.90;;;;;;5053304;28;20209;-54
2022/11/06 08:38:01;;;;;;;6.83;2.03;;;9.60;99.90;;;;;;5053079;28;20207;-58
2022/11/06 08:40:28;;;;;;;7.17;1.90;;;9.70;95.70;;;;;;5053027;28;20667;-58
2022/11/06 08:42:59;;;;;;;3.40;1.70;;;9.70;94.20;;;;;;5052743;28;20287;-58
2022/11/06 08:45:27;;;;;;;5.67;1.80;;;9.80;94.40;;;;;;5053112;28;20205;-55
2022/11/06 08:47:53;;;;;;;4.13;1.50;;;9.90;93.40;;;;;;5052957;28;20263;-58
2022/11/06 08:50:20;;;;;;;3.93;1.67;;;9.90;88.80;;;;;;5053109;28;20202;-58
2022/11/06 08:52:47;;;;;;;4.43;1.80;;;10.00;91.80;;;;;;5053075;28;20229;-56
2022/11/06 08:55:13;;;;;;;4.37;1.70;;;10.10;73.00;;;;;;5052761;28;20727;-58
2022/11/06 08:57:40;;;;;;;2.60;1.40;;;10.10;66.00;;;;;;5052519;28;20205;-62
2022/11/06 09:00:08;;;;;;;6.27;1.93;;;10.20;82.90;;;;;;5052655;28;20236;-62
2022/11/06 09:02:36;;;;;;;7.90;1.90;;;10.30;75.00;;;;;;5052866;28;20279;-62
2022/11/06 09:05:02;;;;;;;4.63;1.67;;;10.40;56.20;;;;;;5052633;28;20212;-62
2022/11/06 09:07:29;;;;;;;4.60;1.50;;;10.50;60.00;;;;;;5052518;28;20283;-62
2022/11/06 09:09:55;;;;;;;4.70;1.87;;;10.70;43.60;;;;;;5052125;28;20201;-62
2022/11/06 09:12:22;;;;;;;5.87;1.93;;;10.70;33.80;;;;;;5051999;28;20221;-60
2022/11/06 09:14:49;;;;;;;5.33;1.80;;;10.80;32.70;;;;;;5052744;28;20210;-58
2022/11/06 09:17:16;;;;;;;4.10;1.90;;;11.00;24.50;;;;;;5052441;28;20205;-58
2022/11/06 09:19:44;;;;;;;5.17;1.57;;;11.00;19.60;;;;;;5052645;28;20209;-58
2022/11/06 09:22:10;;;;;;;5.30;1.70;;;11.00;21.90;;;;;;5052396;28;20287;-57
2022/11/06 09:24:37;;;;;;;5.57;1.80;;;10.90;22.60;;;;;;5052603;28;20251;-57
2022/11/06 09:27:04;;;;;;;6.30;2.00;;;10.80;15.80;;;;;;5052273;28;20738;-58
2022/11/06 09:29:30;;;;;;;6.57;1.80;;;10.80;34.10;;;;;;5052524;28;20217;-58
2022/11/06 09:31:57;;;;;;;3.63;1.67;;;10.80;22.30;;;;;;5052232;28;20225;-58
2022/11/06 09:34:24;;;;;;;6.70;1.67;;;10.90;35.10;;;;;;5052413;28;20279;-57
2022/11/06 09:36:52;;;;;;;5.40;1.83;;;10.90;18.40;;;;;;5052095;28;20206;-57
2022/11/06 09:39:18;;;;;;;2.63;1.60;;;11.00;28.90;;;;;;5051872;28;20213;-60
2022/11/06 09:41:53;;;;;;;3.20;1.60;;;11.00;26.40;;;;;;5051852;28;20287;-58
2022/11/06 09:44:32;;;;;;;6.67;1.90;;;11.10;19.50;;;;;;5052403;28;20209;-59
2022/11/06 09:47:04;;;;;;;4.23;1.87;;;11.00;22.60;;;;;;5051642;28;20584;-55
2022/11/06 09:49:35;;;;;;;5.03;1.67;;;11.10;13.90;;;;;;5051933;28;20209;-58
2022/11/06 09:52:08;;;;;;;6.83;1.90;;;11.20;15.10;;;;;;5051688;28;20709;-58
2022/11/06 09:54:38;;;;;;;2.43;1.27;;;11.30;1.00;;;;;;5052007;28;20692;-58
2022/11/06 09:57:13;;;;;;;4.87;1.70;;;11.20;1.80;;;;;;5051706;28;20263;-58
2022/11/06 09:59:40;;;;;;;3.43;1.40;;;11.30;12.70;;;;;;5051897;28;20270;-58
2022/11/06 10:02:20;;;;;;;4.97;1.80;;;11.30;6.10;;;;;;5051906;28;20316;-58
2022/11/06 10:04:54;;;;;;;6.60;1.90;;;11.30;1.00;;;;;;5051806;28;20217;-57
2022/11/06 10:07:29;;;;;;;2.73;1.50;;;11.40;1.00;;;;;;5051704;28;20281;-58
2022/11/06 10:09:56;;;;;;;4.37;1.90;;;11.30;1.00;;;;;;5051833;28;20259;-58
2022/11/06 10:12:31;;;;;;;2.40;1.43;;;11.20;1.00;;;;;;5051586;28;20225;-58
2022/11/06 10:15:03;;;;;;;6.53;2.10;;;11.20;9.10;;;;;;5051662;28;20274;-58
2022/11/06 10:17:43;;;;;;;6.80;2.00;;;11.20;10.00;;;;;;5051637;28;20691;-58
2022/11/06 10:20:17;;;;;;;5.53;1.97;;;11.10;1.00;;;;;;5051622;28;20586;-58
2022/11/06 10:22:54;;;;;;;6.00;1.90;;;11.00;13.50;;;;;;5053918;28;20226;-58
2022/11/06 10:25:23;;;;;;;6.80;1.80;;;11.00;13.10;;;;;;5055604;28;20729;-56
2022/11/06 10:28:01;;;;;;;2.97;1.47;;;10.90;14.10;;;;;;5055405;28;20618;-58
2022/11/06 10:30:37;;;;;;;6.47;1.83;;;11.00;13.60;;;;;;5056246;28;20211;-58
2022/11/06 10:33:18;;;;;;;5.53;1.93;;;11.20;19.30;;;;;;5055689;28;20240;-57
2022/11/06 10:35:49;;;;;;;2.13;1.50;;;11.20;9.20;;;;;;5055618;28;20213;-58
2022/11/06 10:38:21;;;;;;;3.97;1.70;;;11.30;1.00;;;;;;5055526;28;20693;-58
2022/11/06 10:40:50;;;;;;;3.77;1.57;;;11.40;1.00;;;;;;5055617;28;20269;-58
2022/11/06 10:43:26;;;;;;;3.37;1.60;;;11.60;2.20;;;;;;5055906;28;20233;-58
2022/11/06 10:45:58;;;;;;;3.23;1.63;;;11.60;1.00;;;;;;5055393;28;20667;-60
2022/11/06 10:48:29;;;;;;;4.27;1.60;;;11.70;1.00;;;;;;5055154;28;20234;-59
2022/11/06 10:51:07;;;;;;;6.77;1.50;;;11.70;1.00;;;;;;5055286;28;20672;-58
2022/11/06 10:53:41;;;;;;;4.03;1.47;;;11.70;1.00;;;;;;5055397;28;20210;-57
2022/11/06 10:56:26;;;;;;;3.20;1.53;;;11.80;1.00;;;;;;5055193;28;20213;-56
2022/11/06 10:58:53;;;;;;;4.90;1.30;;;11.80;1.00;;;;;;5055654;28;20194;-58
2022/11/06 11:01:20;;;;;;;4.27;1.47;;;11.80;1.00;;;;;;5055799;28;20316;-58
2022/11/06 11:03:48;;;;;;;5.93;1.90;;;11.60;1.00;;;;;;5055656;28;20275;-57
2022/11/06 11:06:15;;;;;;;4.50;1.63;;;11.50;1.00;;;;;;5055176;28;20204;-58
2022/11/06 11:08:45;;;;;;;4.13;1.50;;;11.60;1.00;;;;;;5054953;28;20218;-58
2022/11/06 11:11:24;;;;;;;4.60;1.83;;;11.60;1.00;;;;;;5054817;28;20342;-58
2022/11/06 11:14:07;;;;;;;7.13;2.03;;;11.70;1.00;;;;;;5054897;28;20206;-58
2022/11/06 11:16:38;;;;;;;4.73;1.90;;;11.70;1.00;;;;;;5054292;28;20567;-58
2022/11/06 11:19:16;;;;;;;5.23;1.80;;;11.70;1.00;;;;;;5054837;28;20248;-58
2022/11/06 11:21:53;;;;;;;4.17;1.80;;;11.80;1.00;;;;;;5054663;28;20291;-59
2022/11/06 11:24:22;;;;;;;8.37;1.90;;;11.70;1.00;;;;;;5054838;28;20304;-59
2022/11/06 11:26:50;;;;;;;3.70;1.60;;;11.80;1.00;;;;;;5054629;28;20220;-58
2022/11/06 11:29:22;;;;;;;4.77;1.80;;;11.70;1.00;;;;;;5054575;28;20674;-56
2022/11/06 11:31:52;;;;;;;4.20;1.80;;;11.60;1.00;;;;;;5054640;28;20273;-58
2022/11/06 11:34:22;;;;;;;5.23;1.87;;;11.50;1.00;;;;;;5054070;28;20205;-57
2022/11/06 11:36:57;;;;;;;4.47;1.60;;;11.50;1.00;;;;;;5054576;28;20212;-58
2022/11/06 11:39:29;;;;;;;5.40;1.80;;;11.40;1.00;;;;;;5054271;28;20656;-58
2022/11/06 11:42:24;;;;;;;4.50;1.60;;;11.50;1.00;;;;;;5054386;28;20234;-57
2022/11/06 11:45:11;;;;;;;5.73;1.90;;;11.50;1.00;;;;;;5054899;28;20214;-58
2022/11/06 11:47:39;;;;;;;7.77;1.90;;;11.50;1.00;;;;;;5054144;28;20844;-55
2022/11/06 11:50:19;;;;;;;8.20;2.13;;;11.60;1.00;;;;;;5054405;28;20207;-57
2022/11/06 11:52:47;;;;;;;5.57;1.30;;;11.40;1.00;;;;;;5054376;28;20222;-56
2022/11/06 11:55:18;;;;;;;3.93;1.77;;;11.50;1.00;;;;;;5054296;28;20599;-57
2022/11/06 11:57:47;;;;;;;4.33;1.60;;;11.50;1.00;;;;;;5054102;28;20208;-58
2022/11/06 12:00:17;;;;;;;5.30;1.90;;;11.50;1.00;;;;;;5054078;28;20217;-58
2022/11/06 12:02:47;;;;;;;2.90;1.60;;;11.50;1.00;;;;;;5053890;28;20235;-57
2022/11/06 12:05:16;;;;;;;4.47;1.77;;;11.50;1.00;;;;;;5053924;28;20667;-57
2022/11/06 12:07:47;;;;;;;3.77;1.80;;;11.50;1.00;;;;;;5053578;28;20216;-57
2022/11/06 12:10:30;;;;;;;6.97;1.57;;;11.50;1.00;;;;;;5038283;28;20261;-58
2022/11/06 12:13:11;;;;;;;3.70;1.60;;;11.50;1.00;;;;;;5036142;28;20248;-64
2022/11/06 12:15:45;;;;;;;5.23;1.80;;;11.70;1.00;;;;;;5053389;28;20239;-58
2022/11/06 12:18:15;;;;;;;4.30;1.30;;;11.60;1.00;;;;;;5050316;28;20265;-62
2022/11/06 12:20:49;;;;;;;2.97;1.73;;;11.60;1.00;;;;;;5050316;28;20223;-60
2022/11/06 12:23:19;;;;;;;2.27;1.63;;;11.40;1.00;;;;;;5053420;28;20245;-57
2022/11/06 12:26:36;;;;;;;4.70;1.70;;;11.60;1.00;;;;;;5053082;28;20209;-62
2022/11/06 12:29:11;;;;;;;4.97;2.10;;;11.60;1.00;;;;;;5013609;28;20629;-62
2022/11/06 12:31:41;;;;;;;6.83;3.50;;;11.70;1.00;;;;;;5012944;28;20219;-60
2022/11/06 12:34:13;;;;;;;5.97;2.30;;;11.60;1.00;;;;;;5013452;28;20229;-61
2022/11/06 12:36:46;;;;;;;5.77;2.50;;;11.60;1.00;;;;;;5012964;28;20210;-60
2022/11/06 12:39:18;;;;;;;8.33;3.00;;;11.50;1.00;;;;;;5013478;28;20280;-61
2022/11/06 12:41:49;;;;;;;4.63;1.93;;;11.50;1.00;;;;;;5012837;28;20234;-60
2022/11/06 12:44:17;;;;;;;4.23;1.90;;;11.50;1.00;;;;;;5012389;28;20218;-56
2022/11/06 12:46:52;;;;;;;6.50;1.87;;;11.40;1.00;;;;;;5012782;28;20209;-56
2022/11/06 12:49:40;;;;;;;3.10;1.87;;;11.40;1.00;;;;;;5012958;28;20210;-56
2022/11/06 12:52:19;;;;;;;3.03;1.57;;;11.40;1.00;;;;;;5012764;28;20223;-57
2022/11/06 12:55:00;;;;;;;4.47;1.80;;;11.40;1.00;;;;;;5012987;28;20567;-57
2022/11/06 12:57:35;;;;;;;4.00;1.40;;;11.40;1.00;;;;;;5012436;28;20234;-57
2022/11/06 13:00:12;;;;;;;5.17;1.73;;;11.30;1.00;;;;;;5012927;28;20210;-57
2022/11/06 13:03:00;;;;;;;3.50;1.30;;;11.30;1.00;;;;;;5012811;28;20227;-56
2022/11/06 13:05:33;;;;;;;4.13;1.60;;;11.30;99.90;;;;;;5012842;28;20337;-57
2022/11/06 13:08:11;;;;;;;3.03;1.80;;;11.30;1.00;;;;;;5012195;28;20211;-57
2022/11/06 13:10:51;;;;;;;2.67;1.40;;;11.20;1.00;;;;;;5012726;28;20582;-57
2022/11/06 13:13:37;;;;;;;7.63;3.00;;;11.30;1.00;;;;;;5012506;28;20289;-58
2022/11/06 13:16:15;;;;;;;4.70;1.97;;;11.40;99.90;;;;;;5012328;28;20202;-57
2022/11/06 13:18:46;;;;;;;2.93;1.53;;;11.50;99.90;;;;;;5012636;28;20211;-58
2022/11/06 13:21:19;;;;;;;5.97;1.53;;;11.40;99.90;;;;;;5012181;28;20207;-58
2022/11/06 13:23:50;;;;;;;4.10;1.57;;;11.40;99.90;;;;;;5012339;28;20804;-57